Time;durP1;ratioP1;P1;durP2;ratioP2;P2;SDS_P1;SDS_P2;PMS_P1;PMS_P2;Temp;Humidity;BMP_temperature;BMP_pressure;BME280_temperature;BME280_humidity;BME280_pressure;Samples;Min_cycle;Max_cycle;Signal;HPM_P1;HPM_P2
2023/04/27 00:01:24;;;;;;;3.58;2.17;;;;;;;;;;5054026;28;20036;-58
2023/04/27 00:03:50;;;;;;;2.90;1.77;;;;;;;;;;5053961;28;20032;-58
2023/04/27 00:06:16;;;;;;;5.18;2.10;;;;;;;;;;5053439;28;20124;-58
2023/04/27 00:08:43;;;;;;;6.80;2.72;;;;;;;;;;5053615;28;20021;-58
2023/04/27 00:11:09;;;;;;;3.15;2.13;;;;;;;;;;5053691;28;20025;-58
2023/04/27 00:13:35;;;;;;;3.25;1.92;;;;;;;;;;5054168;28;20040;-58
2023/04/27 00:16:02;;;;;;;2.88;2.03;;;;;;;;;;5053972;28;20039;-58
2023/04/27 00:18:28;;;;;;;4.40;2.35;;;;;;;;;;5054055;28;20028;-58
2023/04/27 00:20:54;;;;;;;3.88;2.13;;;;;;;;;;5054140;28;20025;-58
2023/04/27 00:23:20;;;;;;;3.08;2.17;;;;;;;;;;5053411;28;20032;-58
2023/04/27 00:25:46;;;;;;;2.55;1.75;;;;;;;;;;5053964;28;20044;-58
2023/04/27 00:28:12;;;;;;;2.85;1.90;;;;;;;;;;5054220;28;20029;-58
2023/04/27 00:30:38;;;;;;;2.22;1.63;;;;;;;;;;5053714;28;20021;-58
2023/04/27 00:33:04;;;;;;;3.97;2.17;;;;;;;;;;5053677;28;20071;-58
2023/04/27 00:35:32;;;;;;;3.45;2.05;;;;;;;;;;5054167;28;20029;-58
2023/04/27 00:37:58;;;;;;;4.35;2.50;;;;;;;;;;5053892;28;20102;-58
2023/04/27 00:40:24;;;;;;;4.05;2.35;;;;;;;;;;5057357;28;20400;-58
2023/04/27 00:42:50;;;;;;;3.88;3.10;;;;;;;;;;5057719;28;20035;-58
2023/04/27 00:45:16;;;;;;;3.63;2.80;;;;;;;;;;5057242;28;20483;-58
2023/04/27 00:47:42;;;;;;;3.47;2.60;;;;;;;;;;5057208;28;20060;-58
2023/04/27 00:50:09;;;;;;;3.85;2.90;;;;;;;;;;5057222;28;20383;-58
2023/04/27 00:52:38;;;;;;;5.60;2.78;;;;;;;;;;5057971;28;20028;-58
2023/04/27 00:55:04;;;;;;;2.83;2.22;;;;;;;;;;5057463;28;20095;-58
2023/04/27 00:57:31;;;;;;;3.42;2.40;;;;;;;;;;5057121;28;20529;-58
2023/04/27 00:59:59;;;;;;;4.47;3.63;;;;;;;;;;5057321;28;20033;-58
2023/04/27 01:02:25;;;;;;;3.20;2.53;;;;;;;;;;5057547;28;20070;-58
2023/04/27 01:04:52;;;;;;;4.38;2.90;;;;;;;;;;5056953;28;20083;-58
2023/04/27 01:07:18;;;;;;;5.03;2.88;;;;;;;;;;5057511;28;20123;-58
2023/04/27 01:09:45;;;;;;;4.10;2.92;;;;;;;;;;5056970;28;20499;-58
2023/04/27 01:12:11;;;;;;;3.85;2.78;;;;;;;;;;5056754;28;20029;-58
2023/04/27 01:14:37;;;;;;;4.13;3.10;;;;;;;;;;5056981;28;20067;-58
2023/04/27 01:17:03;;;;;;;4.22;3.00;;;;;;;;;;5057070;28;20021;-58
2023/04/27 01:19:29;;;;;;;6.65;3.47;;;;;;;;;;5056785;28;20032;-58
2023/04/27 01:21:55;;;;;;;5.18;3.58;;;;;;;;;;5056715;28;20021;-58
2023/04/27 01:24:21;;;;;;;3.42;3.10;;;;;;;;;;5056564;28;20029;-58
2023/04/27 01:26:48;;;;;;;5.57;3.97;;;;;;;;;;5056577;28;20379;-58
2023/04/27 01:29:14;;;;;;;3.90;3.47;;;;;;;;;;5056522;28;20036;-58
2023/04/27 01:31:40;;;;;;;5.43;3.53;;;;;;;;;;5055922;28;20368;-58
2023/04/27 01:34:06;;;;;;;4.00;3.00;;;;;;;;;;5056414;28;20040;-58
2023/04/27 01:36:32;;;;;;;3.65;2.78;;;;;;;;;;5056737;28;20025;-58
2023/04/27 01:38:58;;;;;;;4.38;3.45;;;;;;;;;;5056658;28;20474;-58
2023/04/27 01:41:24;;;;;;;5.53;3.28;;;;;;;;;;5056880;28;20029;-58
2023/04/27 01:43:50;;;;;;;4.75;3.95;;;;;;;;;;5056168;28;20059;-58
2023/04/27 01:46:16;;;;;;;6.82;3.42;;;;;;;;;;5056262;28;20029;-58
2023/04/27 01:48:42;;;;;;;5.75;3.67;;;;;;;;;;5056605;28;20025;-58
2023/04/27 01:51:08;;;;;;;5.40;3.72;;;;;;;;;;5055979;28;20147;-58
2023/04/27 01:53:34;;;;;;;4.03;3.05;;;;;;;;;;5056864;28;20032;-58
2023/04/27 01:56:00;;;;;;;5.90;4.05;;;;;;;;;;5056254;28;20502;-58
2023/04/27 01:58:27;;;;;;;3.33;3.03;;;;;;;;;;5056124;28;20110;-58
2023/04/27 02:00:53;;;;;;;5.05;3.95;;;;;;;;;;5056238;28;20029;-58
2023/04/27 02:03:19;;;;;;;4.40;3.95;;;;;;;;;;5055864;28;20021;-58
2023/04/27 02:05:46;;;;;;;5.50;4.03;;;;;;;;;;5055846;28;20367;-58
2023/04/27 02:08:12;;;;;;;6.38;4.68;;;;;;;;;;5055677;28;20422;-58
2023/04/27 02:10:38;;;;;;;3.60;3.22;;;;;;;;;;5055753;28;20021;-58
2023/04/27 02:13:04;;;;;;;7.05;4.28;;;;;;;;;;5055863;28;20100;-58
2023/04/27 02:15:30;;;;;;;4.47;3.65;;;;;;;;;;5055394;28;20111;-58
2023/04/27 02:17:57;;;;;;;4.05;3.65;;;;;;;;;;5056100;28;20028;-58
2023/04/27 02:20:23;;;;;;;4.22;3.58;;;;;;;;;;5055247;28;20486;-58
2023/04/27 02:22:49;;;;;;;5.90;4.15;;;;;;;;;;5055478;28;20108;-58
2023/04/27 02:25:15;;;;;;;5.57;3.88;;;;;;;;;;5055620;28;20033;-58
2023/04/27 02:27:41;;;;;;;5.03;4.13;;;;;;;;;;5055358;28;20029;-58
2023/04/27 02:30:08;;;;;;;4.43;3.95;;;;;;;;;;5055383;28;20155;-58
2023/04/27 02:32:34;;;;;;;5.63;4.05;;;;;;;;;;5055637;28;20036;-58
2023/04/27 02:35:00;;;;;;;5.47;3.92;;;;;;;;;;5055338;28;20024;-58
2023/04/27 02:37:26;;;;;;;5.20;4.35;;;;;;;;;;5055215;28;20040;-58
2023/04/27 02:39:52;;;;;;;5.40;4.43;;;;;;;;;;5055228;28;20025;-58
2023/04/27 02:42:18;;;;;;;4.47;3.85;;;;;;;;;;5055150;28;20151;-58
2023/04/27 02:44:44;;;;;;;4.95;3.88;;;;;;;;;;5055085;28;20033;-58
2023/04/27 02:47:10;;;;;;;4.22;3.50;;;;;;;;;;5055518;28;20099;-58
2023/04/27 02:49:37;;;;;;;5.82;4.13;;;;;;;;;;5055020;28;20024;-58
2023/04/27 02:52:03;;;;;;;7.25;4.43;;;;;;;;;;5054990;28;20025;-58
2023/04/27 02:54:29;;;;;;;6.68;4.70;;;;;;;;;;5054927;28;20025;-58
2023/04/27 02:56:55;;;;;;;5.10;4.47;;;;;;;;;;5055490;28;20025;-58
2023/04/27 02:59:21;;;;;;;5.55;4.28;;;;;;;;;;5054530;28;20036;-58
2023/04/27 03:01:47;;;;;;;3.97;3.55;;;;;;;;;;5054195;28;20100;-58
2023/04/27 03:04:13;;;;;;;4.82;4.28;;;;;;;;;;5054977;28;20024;-58
2023/04/27 03:06:40;;;;;;;6.60;4.05;;;;;;;;;;5054637;28;20501;-58
2023/04/27 03:09:06;;;;;;;4.35;3.92;;;;;;;;;;5054600;28;20434;-58
2023/04/27 03:11:32;;;;;;;4.95;3.88;;;;;;;;;;5054344;28;20084;-58
2023/04/27 03:13:58;;;;;;;11.00;4.78;;;;;;;;;;5054317;28;20048;-58
2023/04/27 03:16:24;;;;;;;5.03;4.30;;;;;;;;;;5054443;28;20064;-58
2023/04/27 03:18:50;;;;;;;5.47;4.70;;;;;;;;;;5054736;28;20029;-58
2023/04/27 03:21:16;;;;;;;5.32;4.28;;;;;;;;;;5054358;28;20029;-58
2023/04/27 03:23:42;;;;;;;4.90;4.13;;;;;;;;;;5054856;28;20056;-58
2023/04/27 03:26:09;;;;;;;5.32;4.40;;;;;;;;;;5053928;28;20083;-58
2023/04/27 03:28:35;;;;;;;4.88;4.03;;;;;;;;;;5054230;28;20038;-58
2023/04/27 03:31:12;;;;;;;5.60;4.78;;;;;;;;;;5054221;28;20072;-58
2023/04/27 03:33:38;;;;;;;6.45;4.45;;;;;;;;;;5054045;28;20029;-58
2023/04/27 03:36:05;;;;;;;5.95;4.35;;;;;;;;;;5054219;28;20039;-58
2023/04/27 03:38:31;;;;;;;5.70;4.50;;;;;;;;;;5054167;28;20036;-58
2023/04/27 03:40:57;;;;;;;6.55;4.97;;;;;;;;;;5054355;28;20029;-58
2023/04/27 03:43:24;;;;;;;5.13;3.90;;;;;;;;;;5054873;28;20466;-58
2023/04/27 03:45:50;;;;;;;6.43;4.40;;;;;;;;;;5054243;28;20033;-58
2023/04/27 03:48:16;;;;;;;4.97;4.03;;;;;;;;;;5053903;28;20025;-58
2023/04/27 03:50:43;;;;;;;5.60;4.18;;;;;;;;;;5054204;28;20096;-58
2023/04/27 03:53:10;;;;;;;5.65;4.13;;;;;;;;;;5053792;28;20051;-58
2023/04/27 03:55:43;;;;;;;7.32;4.63;;;;;;;;;;5054954;28;20540;-58
2023/04/27 03:58:09;;;;;;;5.57;5.03;;;;;;;;;;5053828;28;20045;-58
2023/04/27 04:00:36;;;;;;;9.55;4.90;;;;;;;;;;5054238;28;20025;-58
2023/04/27 04:03:02;;;;;;;5.78;4.25;;;;;;;;;;5053695;28;20025;-58
2023/04/27 04:05:29;;;;;;;5.70;4.05;;;;;;;;;;5054333;28;20037;-58
2023/04/27 04:07:56;;;;;;;5.70;4.93;;;;;;;;;;5054170;28;20045;-58
2023/04/27 04:10:22;;;;;;;6.28;4.75;;;;;;;;;;5054096;28;20021;-58
2023/04/27 04:12:48;;;;;;;8.35;5.03;;;;;;;;;;5053431;28;20418;-58
2023/04/27 04:15:14;;;;;;;5.90;5.18;;;;;;;;;;5054370;28;20525;-58
2023/04/27 04:17:40;;;;;;;8.38;5.40;;;;;;;;;;5053477;28;20033;-58
2023/04/27 04:20:09;;;;;;;6.60;4.95;;;;;;;;;;5054051;28;20078;-58
2023/04/27 04:22:38;;;;;;;5.28;4.50;;;;;;;;;;5053534;28;20048;-58
2023/04/27 04:25:04;;;;;;;4.93;4.22;;;;;;;;;;5053464;28;20033;-58
2023/04/27 04:27:31;;;;;;;6.90;5.22;;;;;;;;;;5053488;28;20029;-58
2023/04/27 04:30:00;;;;;;;7.88;5.32;;;;;;;;;;5053890;28;20033;-58
2023/04/27 04:32:30;;;;;;;8.65;5.38;;;;;;;;;;5053612;28;20025;-58
2023/04/27 04:34:56;;;;;;;7.50;4.28;;;;;;;;;;5054101;28;20067;-58
2023/04/27 04:37:22;;;;;;;6.57;4.70;;;;;;;;;;5053413;28;20056;-58
2023/04/27 04:39:48;;;;;;;5.70;4.40;;;;;;;;;;5053278;28;20027;-58
2023/04/27 04:42:15;;;;;;;5.45;4.78;;;;;;;;;;5053444;28;20455;-58
2023/04/27 04:44:41;;;;;;;4.57;4.18;;;;;;;;;;5053282;28;20036;-58
2023/04/27 04:47:08;;;;;;;6.07;5.20;;;;;;;;;;5052976;28;20075;-58
2023/04/27 04:49:35;;;;;;;5.93;5.03;;;;;;;;;;5053687;28;20060;-59
2023/04/27 04:52:00;;;;;;;6.40;4.88;;;;;;;;;;5053585;28;20052;-59
2023/04/27 04:54:26;;;;;;;11.18;5.22;;;;;;;;;;5053203;28;20075;-59
2023/04/27 04:56:52;;;;;;;6.80;5.07;;;;;;;;;;5053553;28;20017;-59
2023/04/27 04:59:18;;;;;;;5.82;3.83;;;;;;;;;;5053081;28;20116;-59
2023/04/27 05:01:44;;;;;;;5.35;4.47;;;;;;;;;;5053580;28;20084;-59
2023/04/27 05:04:10;;;;;;;4.65;3.97;;;;;;;;;;5053231;28;20056;-59
2023/04/27 05:06:36;;;;;;;5.15;4.05;;;;;;;;;;5053985;28;20082;-59
2023/04/27 05:09:05;;;;;;;5.45;4.40;;;;;;;;;;5053117;28;20025;-59
2023/04/27 05:11:31;;;;;;;6.18;4.80;;;;;;;;;;5053689;28;20029;-59
2023/04/27 05:13:57;;;;;;;5.90;3.78;;;;;;;;;;5053061;28;20041;-59
2023/04/27 05:16:25;;;;;;;4.85;4.05;;;;;;;;;;5053166;28;20352;-59
2023/04/27 05:18:51;;;;;;;6.90;4.65;;;;;;;;;;5052929;28;20156;-59
2023/04/27 05:21:19;;;;;;;5.60;3.83;;;;;;;;;;5053555;28;20060;-59
2023/04/27 05:23:45;;;;;;;6.85;3.70;;;;;;;;;;5052997;28;20033;-59
2023/04/27 05:26:12;;;;;;;5.50;4.25;;;;;;;;;;5056251;28;20025;-59
2023/04/27 05:28:38;;;;;;;5.57;3.78;;;;;;;;;;5056983;28;20082;-59
2023/04/27 05:31:05;;;;;;;6.30;3.67;;;;;;;;;;5056880;28;20024;-59
2023/04/27 05:33:31;;;;;;;4.97;4.35;;;;;;;;;;5056370;28;20039;-59
2023/04/27 05:35:57;;;;;;;6.95;4.72;;;;;;;;;;5057085;28;20024;-59
2023/04/27 05:38:23;;;;;;;5.57;3.97;;;;;;;;;;5056444;28;20025;-59
2023/04/27 05:40:55;;;;;;;5.53;4.30;;;;;;;;;;5056261;28;20466;-59
2023/04/27 05:43:21;;;;;;;4.88;4.22;;;;;;;;;;5056303;28;20029;-59
2023/04/27 05:45:47;;;;;;;5.40;4.30;;;;;;;;;;5055922;28;20047;-59
2023/04/27 05:48:13;;;;;;;4.55;4.00;;;;;;;;;;5056226;28;20025;-59
2023/04/27 05:50:39;;;;;;;5.32;4.05;;;;;;;;;;5056774;28;20434;-59
2023/04/27 05:53:05;;;;;;;4.57;4.00;;;;;;;;;;5056079;28;20048;-59
2023/04/27 05:55:31;;;;;;;5.05;4.55;;;;;;;;;;5056933;28;20116;-59
2023/04/27 05:57:57;;;;;;;12.20;4.68;;;;;;;;;;5056035;28;20387;-59
2023/04/27 06:00:23;;;;;;;6.40;4.07;;;;;;;;;;5056009;28;20025;-59
2023/04/27 06:02:50;;;;;;;5.65;4.65;;;;;;;;;;5055636;28;20463;-59
2023/04/27 06:05:16;;;;;;;5.05;4.03;;;;;;;;;;5056487;28;20124;-59
2023/04/27 06:07:42;;;;;;;4.85;4.18;;;;;;;;;;5055786;28;20118;-59
2023/04/27 06:10:09;;;;;;;4.90;4.32;;;;;;;;;;5056215;28;20029;-59
2023/04/27 06:12:35;;;;;;;9.52;4.85;;;;;;;;;;5055751;28;20029;-59
2023/04/27 06:15:06;;;;;;;11.45;4.45;;;;;;;;;;5055466;28;20497;-59
2023/04/27 06:17:32;;;;;;;5.72;4.10;;;;;;;;;;5055881;28;20033;-59
2023/04/27 06:19:58;;;;;;;4.90;4.35;;;;;;;;;;5055599;28;20477;-59
2023/04/27 06:22:25;;;;;;;6.30;5.10;;;;;;;;;;5056122;28;20379;-59
2023/04/27 06:24:50;;;;;;;5.72;4.25;;;;;;;;;;5055432;28;20040;-59
2023/04/27 06:27:16;;;;;;;4.63;4.22;;;;;;;;;;5056040;28;20029;-59
2023/04/27 06:29:42;;;;;;;5.93;4.20;;;;;;;;;;5055735;28;20460;-59
2023/04/27 06:32:08;;;;;;;7.05;4.32;;;;;;;;;;5055395;28;20025;-59
2023/04/27 06:34:34;;;;;;;5.35;3.90;;;;;;;;;;5055456;28;20441;-59
2023/04/27 06:37:01;;;;;;;5.28;4.35;;;;;;;;;;5055850;28;20059;-59
2023/04/27 06:39:27;;;;;;;3.65;3.17;;;;;;;;;;5055074;28;20040;-59
2023/04/27 06:41:53;;;;;;;5.18;4.15;;;;;;;;;;5055325;28;20029;-59
2023/04/27 06:44:19;;;;;;;6.47;4.22;;;;;;;;;;5055431;28;20041;-59
2023/04/27 06:46:45;;;;;;;8.50;5.18;;;;;;;;;;5055606;28;20068;-59
2023/04/27 06:49:11;;;;;;;7.10;4.47;;;;;;;;;;5055483;28;20340;-59
2023/04/27 06:51:37;;;;;;;5.22;3.97;;;;;;;;;;5055286;28;20032;-59
2023/04/27 06:54:03;;;;;;;5.43;4.00;;;;;;;;;;5054715;28;20029;-59
2023/04/27 06:56:29;;;;;;;5.10;4.03;;;;;;;;;;5055797;28;20363;-59
2023/04/27 06:58:55;;;;;;;6.80;4.40;;;;;;;;;;5054894;28;20100;-59
2023/04/27 07:01:21;;;;;;;5.47;3.97;;;;;;;;;;5054652;28;20035;-59
2023/04/27 07:03:46;;;;;;;6.07;5.13;;;;;;;;;;5055394;28;20354;-59
2023/04/27 07:06:12;;;;;;;5.07;4.57;;;;;;;;;;5054963;28;20086;-59
2023/04/27 07:08:38;;;;;;;6.15;4.18;;;;;;;;;;5054696;28;20021;-59
2023/04/27 07:11:04;;;;;;;4.70;4.22;;;;;;;;;;5054958;28;20025;-59
2023/04/27 07:13:30;;;;;;;6.15;4.95;;;;;;;;;;5055344;28;20032;-59
2023/04/27 07:15:56;;;;;;;4.78;4.22;;;;;;;;;;5055798;28;20052;-59
2023/04/27 07:18:23;;;;;;;7.03;4.85;;;;;;;;;;5054527;28;20032;-59
2023/04/27 07:20:49;;;;;;;7.20;5.00;;;;;;;;;;5054865;28;20458;-60
2023/04/27 07:23:15;;;;;;;6.50;4.28;;;;;;;;;;5054483;28;20030;-60
2023/04/27 07:25:42;;;;;;;6.13;4.95;;;;;;;;;;5054891;28;20025;-60
2023/04/27 07:28:08;;;;;;;8.95;4.95;;;;;;;;;;5054373;28;20033;-60
2023/04/27 07:30:35;;;;;;;7.10;4.72;;;;;;;;;;5054361;28;20025;-60
2023/04/27 07:33:01;;;;;;;5.93;4.55;;;;;;;;;;5054260;28;20082;-60
2023/04/27 07:35:27;;;;;;;5.88;4.40;;;;;;;;;;5054245;28;20037;-60
2023/04/27 07:37:55;;;;;;;6.93;4.40;;;;;;;;;;5054168;28;20387;-58
2023/04/27 07:40:22;;;;;;;4.43;4.00;;;;;;;;;;5054101;28;20033;-58
2023/04/27 07:42:48;;;;;;;5.05;4.28;;;;;;;;;;5054037;28;20089;-58
2023/04/27 07:45:16;;;;;;;8.23;4.75;;;;;;;;;;5054352;28;20033;-60
2023/04/27 07:47:43;;;;;;;4.90;4.05;;;;;;;;;;5053564;28;20032;-59
2023/04/27 07:50:09;;;;;;;5.43;4.32;;;;;;;;;;5054443;28;20363;-59
2023/04/27 07:52:36;;;;;;;6.40;4.25;;;;;;;;;;5054578;28;20059;-59
2023/04/27 07:55:02;;;;;;;8.18;4.40;;;;;;;;;;5053955;28;20107;-59
2023/04/27 07:57:28;;;;;;;6.50;3.78;;;;;;;;;;5053881;28;20064;-59
2023/04/27 07:59:54;;;;;;;4.32;3.88;;;;;;;;;;5053867;28;20131;-58
2023/04/27 08:02:20;;;;;;;4.53;4.03;;;;;;;;;;5053833;28;20047;-59
2023/04/27 08:04:46;;;;;;;4.80;3.88;;;;;;;;;;5053767;28;20033;-59
2023/04/27 08:07:12;;;;;;;4.47;4.00;;;;;;;;;;5053424;28;20025;-59
2023/04/27 08:09:38;;;;;;;5.10;4.35;;;;;;;;;;5053410;28;20013;-59
2023/04/27 08:12:04;;;;;;;5.22;3.88;;;;;;;;;;5054004;28;20021;-63
2023/04/27 08:14:30;;;;;;;8.35;3.75;;;;;;;;;;5053673;28;20103;-60
2023/04/27 08:16:56;;;;;;;6.65;4.00;;;;;;;;;;5054117;28;20024;-59
2023/04/27 08:19:22;;;;;;;4.70;3.95;;;;;;;;;;5053730;28;20035;-59
2023/04/27 08:21:48;;;;;;;6.63;4.45;;;;;;;;;;5053874;28;20036;-59
2023/04/27 08:24:14;;;;;;;9.15;4.68;;;;;;;;;;5053571;28;20071;-59
2023/04/27 08:26:40;;;;;;;5.68;4.13;;;;;;;;;;5053253;28;20529;-59
2023/04/27 08:29:07;;;;;;;4.63;3.30;;;;;;;;;;5053412;28;20044;-59
2023/04/27 08:31:32;;;;;;;7.20;3.95;;;;;;;;;;5053411;28;20057;-59
2023/04/27 08:33:58;;;;;;;6.78;3.92;;;;;;;;;;5053419;28;20021;-59
2023/04/27 08:36:25;;;;;;;5.60;3.67;;;;;;;;;;5053700;28;20025;-59
2023/04/27 08:38:51;;;;;;;3.97;3.33;;;;;;;;;;5053349;28;20032;-59
2023/04/27 08:41:18;;;;;;;5.45;3.70;;;;;;;;;;5053881;28;20114;-59
2023/04/27 08:43:44;;;;;;;3.97;3.10;;;;;;;;;;5053359;28;20033;-59
2023/04/27 08:46:10;;;;;;;5.22;2.88;;;;;;;;;;5053302;28;20040;-59
2023/04/27 08:48:36;;;;;;;4.57;3.42;;;;;;;;;;5053567;28;20029;-59
2023/04/27 08:51:02;;;;;;;4.55;3.58;;;;;;;;;;5053356;28;20021;-59
2023/04/27 08:53:29;;;;;;;5.25;3.10;;;;;;;;;;5053283;28;20470;-59
2023/04/27 08:55:56;;;;;;;6.63;3.17;;;;;;;;;;5053305;28;20036;-59
2023/04/27 08:58:22;;;;;;;9.15;3.13;;;;;;;;;;5053534;28;20021;-59
2023/04/27 09:00:49;;;;;;;5.32;3.15;;;;;;;;;;5056822;28;20025;-60
2023/04/27 09:03:22;;;;;;;4.82;3.10;;;;;;;;;;5057822;28;20029;-59
2023/04/27 09:05:48;;;;;;;4.82;2.67;;;;;;;;;;5057313;28;20054;-59
2023/04/27 09:08:14;;;;;;;4.20;2.78;;;;;;;;;;5057026;28;20036;-59
2023/04/27 09:10:43;;;;;;;3.80;3.00;;;;;;;;;;5057454;28;20096;-59
2023/04/27 09:13:09;;;;;;;4.88;2.50;;;;;;;;;;5056924;28;20036;-59
2023/04/27 09:15:49;;;;;;;3.88;2.67;;;;;;;;;;5057318;28;20049;-59
2023/04/27 09:18:16;;;;;;;5.05;2.83;;;;;;;;;;5057115;28;20029;-59
2023/04/27 09:20:43;;;;;;;3.53;2.35;;;;;;;;;;5056965;28;20044;-59
2023/04/27 09:23:09;;;;;;;3.67;2.80;;;;;;;;;;5056641;28;20474;-59
2023/04/27 09:25:35;;;;;;;2.40;2.00;;;;;;;;;;5057130;28;20071;-59
2023/04/27 09:28:01;;;;;;;4.05;3.15;;;;;;;;;;5056964;28;20037;-59
2023/04/27 09:30:28;;;;;;;5.38;2.90;;;;;;;;;;5057009;28;20104;-59
2023/04/27 09:32:54;;;;;;;4.03;2.30;;;;;;;;;;5056529;28;20032;-59
2023/04/27 09:35:24;;;;;;;4.90;3.10;;;;;;;;;;5056450;28;20029;-59
2023/04/27 09:37:52;;;;;;;7.05;2.97;;;;;;;;;;5056939;28;20028;-59
2023/04/27 09:40:18;;;;;;;4.50;2.78;;;;;;;;;;5056828;28;20451;-59
2023/04/27 09:42:45;;;;;;;3.53;2.22;;;;;;;;;;5056194;28;20079;-58
2023/04/27 09:45:11;;;;;;;4.47;2.70;;;;;;;;;;5056323;28;20032;-58
2023/04/27 09:47:38;;;;;;;3.22;2.33;;;;;;;;;;5056324;28;20033;-58
2023/04/27 09:50:05;;;;;;;4.95;2.88;;;;;;;;;;5055792;28;20021;-58
2023/04/27 09:52:32;;;;;;;5.03;3.10;;;;;;;;;;5056137;28;20025;-58
2023/04/27 09:54:59;;;;;;;4.53;2.85;;;;;;;;;;5056121;28;20029;-58
2023/04/27 09:57:34;;;;;;;3.47;2.35;;;;;;;;;;5056180;28;20112;-58
2023/04/27 10:00:09;;;;;;;3.85;2.63;;;;;;;;;;5056110;28;20394;-58
2023/04/27 10:02:41;;;;;;;4.60;2.60;;;;;;;;;;5056039;28;20052;-58
2023/04/27 10:05:25;;;;;;;5.50;2.90;;;;;;;;;;5056545;28;20032;-58
2023/04/27 10:07:52;;;;;;;4.28;2.45;;;;;;;;;;5056501;28;20028;-58
2023/04/27 10:10:18;;;;;;;10.70;3.28;;;;;;;;;;5055003;28;20071;-58
2023/04/27 10:12:55;;;;;;;5.32;2.50;;;;;;;;;;5056082;28;20028;-58
2023/04/27 10:15:25;;;;;;;5.70;3.10;;;;;;;;;;5056277;28;20056;-58
2023/04/27 10:17:53;;;;;;;3.22;2.63;;;;;;;;;;5055629;28;20029;-58
2023/04/27 10:20:28;;;;;;;4.97;3.40;;;;;;;;;;5055834;28;20455;-59
2023/04/27 10:22:54;;;;;;;5.65;3.17;;;;;;;;;;5056298;28;20103;-58
2023/04/27 10:25:25;;;;;;;8.00;3.13;;;;;;;;;;5056090;28;20064;-58
2023/04/27 10:27:55;;;;;;;5.57;3.00;;;;;;;;;;5055382;28;20071;-58
2023/04/27 10:30:22;;;;;;;4.60;3.28;;;;;;;;;;5055547;28;20047;-58
2023/04/27 10:32:51;;;;;;;6.88;3.15;;;;;;;;;;5055465;28;20025;-58
2023/04/27 10:35:17;;;;;;;4.80;2.85;;;;;;;;;;5055381;28;20052;-58
2023/04/27 10:37:43;;;;;;;4.85;2.95;;;;;;;;;;5054940;28;20463;-58
2023/04/27 10:40:13;;;;;;;4.47;2.95;;;;;;;;;;5055745;28;20410;-58
2023/04/27 10:42:39;;;;;;;4.72;3.42;;;;;;;;;;5055208;28;20374;-58
2023/04/27 10:45:05;;;;;;;4.18;3.05;;;;;;;;;;5055408;28;20033;-58
2023/04/27 10:47:39;;;;;;;4.95;2.95;;;;;;;;;;5055755;28;20049;-58
2023/04/27 10:50:10;;;;;;;3.83;2.55;;;;;;;;;;5054788;28;20040;-58
2023/04/27 10:52:36;;;;;;;3.92;2.67;;;;;;;;;;5055316;28;20037;-58
2023/04/27 10:55:12;;;;;;;6.40;3.28;;;;;;;;;;5055719;28;20075;-58
2023/04/27 10:57:54;;;;;;;3.75;2.97;;;;;;;;;;5055167;28;20485;-58
2023/04/27 11:00:25;;;;;;;6.50;2.78;;;;;;;;;;5054790;28;20458;-58
2023/04/27 11:02:52;;;;;;;3.63;2.38;;;;;;;;;;5055069;28;20090;-58
2023/04/27 11:05:19;;;;;;;3.83;2.70;;;;;;;;;;5054684;28;20074;-58
2023/04/27 11:07:46;;;;;;;5.35;2.75;;;;;;;;;;5054731;28;20189;-58
2023/04/27 11:10:16;;;;;;;3.88;2.90;;;;;;;;;;5054821;28;20099;-58
2023/04/27 11:12:42;;;;;;;3.20;2.65;;;;;;;;;;5054635;28;20021;-58
2023/04/27 11:15:08;;;;;;;6.03;2.88;;;;;;;;;;5055333;28;20089;-58
2023/04/27 11:17:34;;;;;;;8.07;3.15;;;;;;;;;;5054528;28;20025;-58
2023/04/27 11:20:00;;;;;;;4.32;3.13;;;;;;;;;;5054838;28;20101;-58
2023/04/27 11:22:26;;;;;;;4.00;3.05;;;;;;;;;;5054245;28;20017;-58
2023/04/27 11:24:52;;;;;;;5.13;2.95;;;;;;;;;;5054598;28;20348;-58
2023/04/27 11:27:21;;;;;;;3.83;3.30;;;;;;;;;;5055001;28;20470;-58
2023/04/27 11:29:47;;;;;;;5.68;3.45;;;;;;;;;;5054313;28;20035;-57
2023/04/27 11:32:19;;;;;;;4.90;3.25;;;;;;;;;;5054400;28;20441;-58
2023/04/27 11:34:52;;;;;;;4.93;2.80;;;;;;;;;;5054262;28;20056;-58
2023/04/27 11:37:23;;;;;;;3.40;2.47;;;;;;;;;;5053973;28;20483;-58
2023/04/27 11:39:48;;;;;;;5.68;2.10;;;;;;;;;;5054899;28;20037;-58
2023/04/27 11:42:21;;;;;;;2.88;2.20;;;;;;;;;;5054202;28;20074;-58
2023/04/27 11:44:59;;;;;;;4.55;2.78;;;;;;;;;;5054391;28;20033;-58
2023/04/27 11:47:26;;;;;;;4.57;2.95;;;;;;;;;;5054529;28;20083;-58
2023/04/27 11:49:54;;;;;;;3.78;1.88;;;;;;;;;;5054970;28;20381;-58
2023/04/27 11:52:21;;;;;;;2.45;1.50;;;;;;;;;;5053983;28;20028;-58
2023/04/27 11:54:48;;;;;;;5.32;2.83;;;;;;;;;;5054219;28;20025;-59
2023/04/27 11:57:14;;;;;;;3.38;2.30;;;;;;;;;;5054573;28;20363;-58
2023/04/27 11:59:41;;;;;;;4.22;3.10;;;;;;;;;;5053558;28;20538;-58
2023/04/27 12:02:07;;;;;;;4.63;3.17;;;;;;;;;;5053879;28;20375;-58
2023/04/27 12:04:33;;;;;;;4.32;3.15;;;;;;;;;;5053812;28;20371;-58
2023/04/27 12:07:01;;;;;;;4.25;3.53;;;;;;;;;;5054434;28;20032;-58
2023/04/27 12:09:27;;;;;;;4.22;3.47;;;;;;;;;;5053784;28;20025;-58
2023/04/27 12:11:53;;;;;;;9.10;3.97;;;;;;;;;;5052251;28;20021;-58
2023/04/27 12:14:20;;;;;;;7.28;3.85;;;;;;;;;;5054464;28;20067;-58
2023/04/27 12:16:46;;;;;;;5.47;4.47;;;;;;;;;;5054166;28;20028;-58
2023/04/27 12:19:12;;;;;;;4.80;4.30;;;;;;;;;;5053653;28;20387;-58
2023/04/27 12:21:38;;;;;;;7.43;4.03;;;;;;;;;;5053913;28;20021;-58
2023/04/27 12:24:04;;;;;;;8.13;3.75;;;;;;;;;;5053490;28;20092;-58
2023/04/27 12:26:30;;;;;;;5.45;3.55;;;;;;;;;;5053696;28;20028;-58
2023/04/27 12:28:56;;;;;;;4.85;4.10;;;;;;;;;;5053320;28;20033;-58
2023/04/27 12:31:24;;;;;;;6.50;3.30;;;;;;;;;;5053957;28;20021;-58
2023/04/27 12:33:50;;;;;;;3.83;2.95;;;;;;;;;;5054985;28;20460;-58
2023/04/27 12:36:17;;;;;;;5.80;3.83;;;;;;;;;;5058188;28;20041;-58
2023/04/27 12:38:43;;;;;;;3.67;2.95;;;;;;;;;;5058131;28;20021;-58
2023/04/27 12:41:09;;;;;;;3.42;2.83;;;;;;;;;;5057796;28;20021;-58
2023/04/27 12:43:36;;;;;;;6.07;2.83;;;;;;;;;;5057838;28;20151;-59
2023/04/27 12:46:02;;;;;;;5.75;2.80;;;;;;;;;;5057774;28;20041;-58
2023/04/27 12:48:28;;;;;;;3.78;2.70;;;;;;;;;;5058102;28;20021;-58
2023/04/27 12:50:54;;;;;;;3.85;2.47;;;;;;;;;;5057934;28;20102;-58
2023/04/27 12:53:20;;;;;;;3.65;2.67;;;;;;;;;;5057803;28;20036;-59
2023/04/27 12:55:46;;;;;;;4.72;3.00;;;;;;;;;;5057682;28;20350;-58
2023/04/27 12:58:12;;;;;;;6.97;2.75;;;;;;;;;;5057128;28;20035;-58
2023/04/27 13:00:38;;;;;;;4.60;2.88;;;;;;;;;;5056811;28;20024;-59
2023/04/27 13:03:05;;;;;;;4.05;2.83;;;;;;;;;;5057259;28;20017;-59
2023/04/27 13:05:31;;;;;;;5.22;2.65;;;;;;;;;;5057314;28;20036;-58
2023/04/27 13:07:57;;;;;;;3.38;2.75;;;;;;;;;;5057255;28;20482;-58
2023/04/27 13:10:23;;;;;;;4.05;2.70;;;;;;;;;;5057007;28;20021;-59
2023/04/27 13:12:49;;;;;;;5.03;3.70;;;;;;;;;;5056994;28;20036;-58
2023/04/27 13:15:15;;;;;;;3.20;2.58;;;;;;;;;;5056532;28;20284;-58
2023/04/27 13:17:41;;;;;;;4.32;2.72;;;;;;;;;;5056800;28;20113;-58
2023/04/27 13:20:07;;;;;;;3.00;2.40;;;;;;;;;;5056780;28;20017;-58
2023/04/27 13:22:33;;;;;;;3.63;2.78;;;;;;;;;;5056859;28;20382;-59
2023/04/27 13:24:59;;;;;;;4.53;2.38;;;;;;;;;;5056683;28;20032;-59
2023/04/27 13:27:27;;;;;;;4.97;2.95;;;;;;;;;;5057521;28;20037;-59
2023/04/27 13:29:53;;;;;;;3.90;2.78;;;;;;;;;;5056886;28;20108;-59
2023/04/27 13:32:19;;;;;;;4.25;2.60;;;;;;;;;;5056603;28;20017;-59
2023/04/27 13:34:45;;;;;;;7.65;3.72;;;;;;;;;;5057065;28;20025;-59
2023/04/27 13:37:11;;;;;;;4.05;2.53;;;;;;;;;;5056861;28;20332;-59
2023/04/27 13:39:37;;;;;;;3.63;2.70;;;;;;;;;;5056817;28;20027;-58
2023/04/27 13:42:03;;;;;;;4.25;3.15;;;;;;;;;;5056467;28;20100;-59
2023/04/27 13:44:30;;;;;;;5.05;3.10;;;;;;;;;;5056830;28;20094;-59
2023/04/27 13:46:56;;;;;;;3.30;3.00;;;;;;;;;;5055607;28;20041;-59
2023/04/27 13:49:22;;;;;;;6.05;3.28;;;;;;;;;;5056145;28;20017;-59
2023/04/27 13:51:48;;;;;;;8.23;3.42;;;;;;;;;;5055801;28;20120;-59
2023/04/27 13:54:14;;;;;;;3.70;2.85;;;;;;;;;;5056128;28;20021;-59
2023/04/27 13:56:40;;;;;;;4.25;2.72;;;;;;;;;;5056056;28;20060;-59
2023/04/27 13:59:08;;;;;;;4.43;2.72;;;;;;;;;;5056277;28;20074;-58
2023/04/27 14:01:34;;;;;;;4.93;3.08;;;;;;;;;;5056040;28;20071;-58
2023/04/27 14:04:00;;;;;;;3.25;2.40;;;;;;;;;;5056473;28;20129;-59
2023/04/27 14:06:26;;;;;;;4.40;2.90;;;;;;;;;;5056483;28;20375;-59
2023/04/27 14:08:52;;;;;;;2.85;2.22;;;;;;;;;;5055836;28;20028;-59
2023/04/27 14:11:18;;;;;;;2.90;1.85;;;;;;;;;;5056121;28;20021;-59
2023/04/27 14:13:45;;;;;;;3.47;2.25;;;;;;;;;;5055644;28;20024;-59
2023/04/27 14:16:11;;;;;;;3.45;2.15;;;;;;;;;;5056257;28;20097;-59
2023/04/27 14:18:37;;;;;;;3.33;2.42;;;;;;;;;;5055966;28;20017;-59
2023/04/27 14:21:03;;;;;;;3.45;2.28;;;;;;;;;;5055625;28;20105;-59
2023/04/27 14:23:29;;;;;;;6.93;2.92;;;;;;;;;;5055642;28;20311;-59
2023/04/27 14:25:55;;;;;;;4.35;1.88;;;;;;;;;;5056369;28;20033;-59
2023/04/27 14:28:21;;;;;;;4.18;2.38;;;;;;;;;;5055855;28;20025;-59
2023/04/27 14:30:47;;;;;;;3.00;1.92;;;;;;;;;;5056008;28;20451;-58
2023/04/27 14:33:13;;;;;;;3.70;2.20;;;;;;;;;;5055952;28;20344;-59
2023/04/27 14:35:39;;;;;;;4.35;2.15;;;;;;;;;;5055679;28;20021;-59
2023/04/27 14:38:05;;;;;;;3.60;2.10;;;;;;;;;;5055307;28;20060;-58
2023/04/27 14:40:32;;;;;;;4.20;2.38;;;;;;;;;;5055290;28;20025;-59